Abisko, Sweden

5:55 PM CEST on July 24, 2014 (GMT +0200)
Bjørnfjell 520moh (INORDLAN37) Elev 1706 ft | 68.44 °N, 18.07 °E | Change Station

Current weather conditions updated 5 minutes ago

Mostly Cloudy
Mostly Cloudy
62.1 °F
Feels Like 62.1 °F
N
9.0
Wind Variable Wind from WSW
Gusts 14.0 mph

Tomorrow is forecast to be Much Warmer than today.

Today
High -- | Low -- °F
--% Chance of Precip.
Yesterday
High -- | Low -- °F
Precip. -- in
2:00 AM 11:35 PM
Waning Crescent, 5% visible
Pressure 30.27 in
Visibility 6.2 miles
Clouds Few 2000 ft
Mostly Cloudy 4000 ft
Dew Point 54 °F
Humidity 75%
Rainfall 0.00 in
Snow Depth Not available.
UV 1 out of 12
Pollen Not available.
Air Quality Not available.
Flu Activity Not available.
METAR ENDU 241520Z 29007KT 9999 VCSH FEW020 BKN040 17/13 Q1025 NOSIG

More Conditions Fewer Conditions

Pressure 30.27 in
Visibility 6.2 miles
Clouds Few 2000 ft
Mostly Cloudy 4000 ft
Dew Point 54 °F
Humidity 75%
Rainfall 0.00 in
Snow Depth Not available.
UV 1 out of 12
Pollen Not available.
Air Quality Not available.
Flu Activity Not available.
METAR ENDU 241520Z 29007KT 9999 VCSH FEW020 BKN040 17/13 Q1025 NOSIG

More Conditions Fewer Conditions

10-Day Weather Forecast

Almanac

Astronomy

Jul. 24, 2014 Rise Set
Actual Time 2:00 AM CEST 11:35 PM CEST
Civil Twilight Sun does not rise Sun does not rise
Nautical Twilight Sun does not rise Sun does not rise
Astronomical Twilight Sun does not rise Sun does not rise
Moon 12:32 AM CEST 8:54 PM CEST
Length of Visible Light 24h 00m
Length of Day
21h 34m
Tomorrow will be 14m 59s shorter.
Waning Crescent, 5% of the Moon is Illuminated
Today
Waning Crescent
Jul 26
New
Aug 3
First Quarter
Aug 10
Full
Aug 17
Last Quarter

Today's Extremes

Country Highs Country Lows

Community

WunderPhotos

Upload Photos

1,737,042 photos uploaded!

Nearby

Snow Depth

Not available.

Earthquake Activity

City Distance Mag. Time & Date
No recent earthquake activity has been reported nearby.
Minimum magnitude displayed is 2.5.

Coastal Water Temperatures

Place Temperature
No Stations Reporting

Nearby Weather Stations

Station Location Temp. Dew Point Humidity Wind Precip. Elev Updated Type
Bjørnfjell 520moh, Riksgrensen 62.1 °F 54 °F 75% WSW  at  9.0 mph 0.00 in / hr 1706 ft 5:49 PM CEST Normal
Bardu, Bardu 63.7 °F 56 °F 77% SSW  at  7.0 mph 0.00 in / hr 1663 ft 5:45 PM CEST Normal
STF Abisko, Abisko 59.3 °F 52 °F 78% WNW  at  16.0 mph - / hr 2985 ft 5:44 PM CEST Normal

Show More Stations Show Fewer Stations